Time;durP1;ratioP1;P1;durP2;ratioP2;P2;SDS_P1;SDS_P2;PMS_P1;PMS_P2;Temp;Humidity;BMP_temperature;BMP_pressure;BME280_temperature;BME280_humidity;BME280_pressure;Samples;Min_cycle;Max_cycle;Signal;HPM_P1;HPM_P2
2022/09/02 00:00:12;;;;;;;6.33;3.07;;;;;;;;;;4947448;28;20202;-75
2022/09/02 00:02:41;;;;;;;8.80;2.87;;;;;;;;;;4948202;28;20308;-75
2022/09/02 00:05:09;;;;;;;4.97;2.90;;;;;;;;;;4945086;28;20210;-75
2022/09/02 00:07:36;;;;;;;4.10;2.80;;;;;;;;;;4949251;28;20222;-76
2022/09/02 00:10:03;;;;;;;7.87;3.70;;;;;;;;;;4945263;28;20214;-75
2022/09/02 00:12:30;;;;;;;5.53;3.00;;;;;;;;;;4948416;28;20661;-76
2022/09/02 00:14:57;;;;;;;5.70;2.67;;;;;;;;;;4944917;28;20215;-74
2022/09/02 00:17:25;;;;;;;7.60;3.20;;;;;;;;;;4944916;28;20230;-77
2022/09/02 00:19:53;;;;;;;6.10;3.17;;;;;;;;;;4942567;28;20738;-77
2022/09/02 00:22:21;;;;;;;7.87;3.13;;;;;;;;;;4947455;28;20270;-74
2022/09/02 00:24:48;;;;;;;8.10;3.13;;;;;;;;;;4947458;28;20712;-77
2022/09/02 00:27:15;;;;;;;11.50;2.90;;;;;;;;;;4945151;28;20222;-76
2022/09/02 00:29:42;;;;;;;5.97;2.97;;;;;;;;;;4947799;28;20217;-76
2022/09/02 00:32:09;;;;;;;4.87;2.70;;;;;;;;;;4946483;28;20298;-76
2022/09/02 00:34:37;;;;;;;5.27;3.17;;;;;;;;;;4944613;28;20204;-76
2022/09/02 00:37:05;;;;;;;5.37;3.13;;;;;;;;;;4945027;28;20228;-76
2022/09/02 00:39:32;;;;;;;9.53;3.03;;;;;;;;;;4944867;28;20290;-77
2022/09/02 00:42:01;;;;;;;4.70;2.80;;;;;;;;;;4944949;28;20691;-77
2022/09/02 00:44:28;;;;;;;5.50;2.97;;;;;;;;;;4946994;28;20203;-77
2022/09/02 00:46:55;;;;;;;8.43;3.10;;;;;;;;;;4942874;28;20618;-74
2022/09/02 00:49:24;;;;;;;8.13;3.90;;;;;;;;;;4944296;28;20206;-77
2022/09/02 00:51:53;;;;;;;5.33;2.70;;;;;;;;;;4943200;28;20209;-75
2022/09/02 00:54:23;;;;;;;5.13;3.40;;;;;;;;;;4947618;28;20270;-77
2022/09/02 00:56:51;;;;;;;4.33;2.63;;;;;;;;;;4950143;28;20605;-77
2022/09/02 00:59:20;;;;;;;7.80;3.00;;;;;;;;;;4948236;28;20241;-76
2022/09/02 01:01:48;;;;;;;4.70;3.17;;;;;;;;;;4944022;28;20221;-76
2022/09/02 01:04:15;;;;;;;3.80;2.83;;;;;;;;;;4948439;28;20208;-76
2022/09/02 01:06:43;;;;;;;6.43;3.13;;;;;;;;;;4946968;28;20235;-76
2022/09/02 01:09:12;;;;;;;7.87;3.30;;;;;;;;;;4945465;28;20217;-76
2022/09/02 01:11:42;;;;;;;3.80;2.73;;;;;;;;;;4946264;28;20293;-76
2022/09/02 01:14:11;;;;;;;4.67;2.77;;;;;;;;;;4946353;28;20206;-76
2022/09/02 01:16:41;;;;;;;6.23;2.97;;;;;;;;;;4946274;28;20234;-76
2022/09/02 01:19:11;;;;;;;5.47;2.90;;;;;;;;;;4947867;28;20329;-76
2022/09/02 01:21:38;;;;;;;5.80;3.43;;;;;;;;;;4946704;28;20210;-76
2022/09/02 01:24:07;;;;;;;4.03;2.90;;;;;;;;;;4946816;28;20670;-76
2022/09/02 01:26:34;;;;;;;3.40;2.83;;;;;;;;;;4945145;28;20225;-76
2022/09/02 01:29:01;;;;;;;4.23;2.93;;;;;;;;;;4946175;28;21229;-76
2022/09/02 01:31:29;;;;;;;8.60;2.93;;;;;;;;;;4946821;28;20669;-76
2022/09/02 01:33:56;;;;;;;5.47;2.80;;;;;;;;;;4946557;28;20210;-76
2022/09/02 01:36:24;;;;;;;6.60;3.10;;;;;;;;;;4947637;28;20586;-76
2022/09/02 01:38:51;;;;;;;6.00;3.30;;;;;;;;;;4948525;28;20217;-76
2022/09/02 01:41:19;;;;;;;5.67;3.03;;;;;;;;;;4945584;28;20216;-76
2022/09/02 01:43:46;;;;;;;5.30;3.23;;;;;;;;;;4946763;28;20217;-76
2022/09/02 01:46:14;;;;;;;5.60;3.03;;;;;;;;;;4947228;28;20261;-76
2022/09/02 01:48:41;;;;;;;5.53;2.90;;;;;;;;;;4948966;28;20301;-76
2022/09/02 01:51:08;;;;;;;4.60;2.97;;;;;;;;;;4949573;28;20238;-76
2022/09/02 01:53:35;;;;;;;6.77;3.13;;;;;;;;;;4948598;28;20202;-76
2022/09/02 01:56:03;;;;;;;4.67;3.10;;;;;;;;;;4948290;28;20248;-76
2022/09/02 01:58:31;;;;;;;3.40;2.80;;;;;;;;;;4951722;28;20198;-76
2022/09/02 02:00:58;;;;;;;6.60;2.90;;;;;;;;;;4949362;28;20213;-76
2022/09/02 02:03:26;;;;;;;6.63;2.90;;;;;;;;;;4957448;28;20202;-76
2022/09/02 02:05:53;;;;;;;7.60;3.17;;;;;;;;;;4951838;28;20301;-76
2022/09/02 02:08:20;;;;;;;8.60;3.20;;;;;;;;;;4950956;28;20205;-76
2022/09/02 02:10:47;;;;;;;9.87;3.37;;;;;;;;;;4950058;28;20297;-76
2022/09/02 02:13:15;;;;;;;10.00;3.20;;;;;;;;;;4956874;28;20211;-76
2022/09/02 02:15:44;;;;;;;5.40;3.00;;;;;;;;;;4948277;28;20233;-76
2022/09/02 02:18:11;;;;;;;4.87;2.80;;;;;;;;;;4956481;28;20226;-76
2022/09/02 02:20:38;;;;;;;6.03;3.00;;;;;;;;;;4953221;28;20206;-75
2022/09/02 02:23:06;;;;;;;9.90;3.60;;;;;;;;;;4952199;28;20207;-76
2022/09/02 02:25:33;;;;;;;8.80;3.10;;;;;;;;;;4954831;28;20221;-76
2022/09/02 02:28:00;;;;;;;7.17;3.10;;;;;;;;;;4948679;28;20313;-76
2022/09/02 02:30:31;;;;;;;4.70;3.03;;;;;;;;;;4953385;28;20206;-76
2022/09/02 02:32:59;;;;;;;5.00;2.80;;;;;;;;;;4949339;28;20310;-76
2022/09/02 02:35:26;;;;;;;6.10;2.90;;;;;;;;;;4949280;28;20210;-76
2022/09/02 02:37:53;;;;;;;4.73;2.80;;;;;;;;;;4952113;28;20270;-76
2022/09/02 02:40:22;;;;;;;10.03;2.60;;;;;;;;;;4954769;28;20198;-76
2022/09/02 02:42:52;;;;;;;6.60;3.13;;;;;;;;;;4950870;28;20278;-76
2022/09/02 02:45:19;;;;;;;8.07;2.53;;;;;;;;;;4955827;28;20303;-75
2022/09/02 02:47:46;;;;;;;7.63;2.80;;;;;;;;;;4948819;28;20320;-76
2022/09/02 02:50:16;;;;;;;5.13;3.00;;;;;;;;;;4954086;28;20208;-76
2022/09/02 02:52:43;;;;;;;6.23;2.90;;;;;;;;;;4950496;28;20203;-75
2022/09/02 02:55:12;;;;;;;4.53;2.90;;;;;;;;;;4953217;28;20206;-75
2022/09/02 02:57:41;;;;;;;4.93;3.00;;;;;;;;;;4950322;28;20226;-76
2022/09/02 03:00:10;;;;;;;6.70;2.70;;;;;;;;;;4947564;28;20217;-76
2022/09/02 03:02:37;;;;;;;7.63;3.00;;;;;;;;;;4950374;28;20221;-76
2022/09/02 03:05:05;;;;;;;7.30;2.80;;;;;;;;;;4948581;28;20210;-76
2022/09/02 03:07:33;;;;;;;8.43;3.00;;;;;;;;;;4952686;28;20595;-76
2022/09/02 03:10:02;;;;;;;6.07;2.77;;;;;;;;;;4951128;28;20215;-76
2022/09/02 03:12:31;;;;;;;8.40;2.90;;;;;;;;;;4948513;28;20213;-76
2022/09/02 03:14:59;;;;;;;3.53;2.53;;;;;;;;;;4948066;28;20305;-75
2022/09/02 03:17:26;;;;;;;8.90;2.63;;;;;;;;;;4956343;28;20320;-76
2022/09/02 03:19:57;;;;;;;4.43;2.67;;;;;;;;;;4954447;28;20206;-76
2022/09/02 03:22:24;;;;;;;6.07;3.00;;;;;;;;;;4951495;28;20206;-76
2022/09/02 03:24:53;;;;;;;6.47;2.67;;;;;;;;;;4949310;28;20207;-76
2022/09/02 03:27:20;;;;;;;7.17;2.83;;;;;;;;;;4951869;28;20229;-76
2022/09/02 03:29:47;;;;;;;3.90;3.00;;;;;;;;;;4953108;28;20222;-76
2022/09/02 03:32:19;;;;;;;3.57;2.50;;;;;;;;;;4949109;28;20229;-75
2022/09/02 03:34:47;;;;;;;5.60;3.00;;;;;;;;;;4949808;28;20206;-76
2022/09/02 03:37:18;;;;;;;9.00;2.80;;;;;;;;;;4948013;28;20231;-75
2022/09/02 03:39:45;;;;;;;5.73;3.40;;;;;;;;;;4950413;28;20206;-76
2022/09/02 03:42:14;;;;;;;7.53;2.90;;;;;;;;;;4949305;28;20214;-76
2022/09/02 03:44:44;;;;;;;5.53;3.73;;;;;;;;;;4948391;28;20207;-76
2022/09/02 03:47:16;;;;;;;7.97;3.57;;;;;;;;;;4947529;28;20230;-76
2022/09/02 03:49:43;;;;;;;6.00;3.27;;;;;;;;;;4950379;28;20214;-76
2022/09/02 03:52:10;;;;;;;4.70;2.97;;;;;;;;;;4949594;28;20202;-75
2022/09/02 03:54:38;;;;;;;5.43;2.93;;;;;;;;;;4949755;28;20205;-75
2022/09/02 03:57:05;;;;;;;8.30;3.00;;;;;;;;;;4949530;28;21323;-76
2022/09/02 03:59:34;;;;;;;6.60;3.40;;;;;;;;;;4953428;28;20212;-75
2022/09/02 04:02:03;;;;;;;6.83;3.23;;;;;;;;;;4951338;28;20205;-75
2022/09/02 04:04:30;;;;;;;6.07;3.00;;;;;;;;;;4947551;28;20237;-76
2022/09/02 04:06:58;;;;;;;6.40;3.27;;;;;;;;;;4948966;28;20245;-76
2022/09/02 04:09:25;;;;;;;4.77;3.30;;;;;;;;;;4947414;28;20204;-76
2022/09/02 04:11:52;;;;;;;5.80;3.10;;;;;;;;;;4947902;28;20215;-76
2022/09/02 04:14:19;;;;;;;8.43;2.90;;;;;;;;;;4951980;28;20210;-76
2022/09/02 04:22:55;;;;;;;5.00;3.07;;;;;;;;;;4948647;28;20221;-76
2022/09/02 04:25:22;;;;;;;8.37;2.97;;;;;;;;;;4949068;28;20231;-76
2022/09/02 04:27:49;;;;;;;5.87;3.17;;;;;;;;;;4952117;28;20244;-76
2022/09/02 04:30:17;;;;;;;3.83;2.80;;;;;;;;;;4946930;28;20202;-76
2022/09/02 04:32:45;;;;;;;8.07;2.90;;;;;;;;;;4949904;28;20576;-75
2022/09/02 04:35:14;;;;;;;5.60;2.70;;;;;;;;;;4948228;28;20214;-76
2022/09/02 04:37:43;;;;;;;5.00;3.23;;;;;;;;;;4945454;28;20231;-76
2022/09/02 04:40:13;;;;;;;7.63;3.37;;;;;;;;;;4948886;28;20321;-74
2022/09/02 04:42:40;;;;;;;5.60;3.50;;;;;;;;;;4943162;28;20203;-75
2022/09/02 04:45:11;;;;;;;4.53;3.47;;;;;;;;;;4945755;28;21397;-76
2022/09/02 04:47:39;;;;;;;4.97;2.70;;;;;;;;;;4948380;28;20226;-76
2022/09/02 04:50:17;;;;;;;5.77;3.60;;;;;;;;;;4950073;28;20700;-76
2022/09/02 04:52:44;;;;;;;13.20;3.77;;;;;;;;;;4948572;28;20292;-76
2022/09/02 04:55:12;;;;;;;4.70;3.83;;;;;;;;;;4946050;28;20203;-76
2022/09/02 04:57:39;;;;;;;7.33;3.80;;;;;;;;;;4941444;28;20234;-76
2022/09/02 05:00:08;;;;;;;4.80;2.73;;;;;;;;;;4946045;28;20650;-76
2022/09/02 05:02:35;;;;;;;12.03;3.73;;;;;;;;;;4950804;28;20673;-75
2022/09/02 05:05:02;;;;;;;15.77;3.47;;;;;;;;;;4948084;28;20221;-75
2022/09/02 05:07:30;;;;;;;8.27;3.43;;;;;;;;;;4951010;28;20226;-76
2022/09/02 05:09:58;;;;;;;7.80;3.30;;;;;;;;;;4948992;28;20209;-75
2022/09/02 05:12:27;;;;;;;8.10;3.53;;;;;;;;;;4947045;28;20198;-76
2022/09/02 05:14:55;;;;;;;14.07;3.23;;;;;;;;;;4943328;28;20649;-75
2022/09/02 05:17:23;;;;;;;9.00;2.97;;;;;;;;;;4946275;28;20289;-75
2022/09/02 05:19:52;;;;;;;10.43;2.90;;;;;;;;;;4945707;28;20206;-75
2022/09/02 05:22:21;;;;;;;9.87;2.67;;;;;;;;;;4947175;28;20258;-75
2022/09/02 05:24:51;;;;;;;5.30;2.87;;;;;;;;;;4951331;28;20440;-75
2022/09/02 05:27:22;;;;;;;4.67;2.80;;;;;;;;;;4951933;28;20328;-76
2022/09/02 05:29:58;;;;;;;8.53;2.70;;;;;;;;;;4944612;28;20258;-75
2022/09/02 05:32:25;;;;;;;4.73;2.70;;;;;;;;;;4951113;28;20209;-76
2022/09/02 05:34:53;;;;;;;5.60;2.80;;;;;;;;;;4950760;28;20656;-75
2022/09/02 05:37:20;;;;;;;5.97;2.33;;;;;;;;;;4950556;28;20230;-76
2022/09/02 05:39:48;;;;;;;5.97;2.53;;;;;;;;;;4952805;28;20705;-76
2022/09/02 05:42:15;;;;;;;6.47;2.53;;;;;;;;;;4947590;28;20689;-75
2022/09/02 05:44:43;;;;;;;8.63;2.57;;;;;;;;;;4947290;28;20661;-75
2022/09/02 05:47:12;;;;;;;5.23;2.40;;;;;;;;;;4947392;28;20346;-75
2022/09/02 05:49:39;;;;;;;6.47;2.53;;;;;;;;;;4945823;28;20214;-75
2022/09/02 05:52:09;;;;;;;5.67;2.70;;;;;;;;;;4946737;28;20210;-75
2022/09/02 05:54:37;;;;;;;13.33;2.33;;;;;;;;;;4941174;28;20642;-75
2022/09/02 05:57:07;;;;;;;5.33;2.30;;;;;;;;;;4951455;28;20716;-74
2022/09/02 05:59:37;;;;;;;5.63;2.47;;;;;;;;;;4949712;28;20210;-75
2022/09/02 06:02:04;;;;;;;6.20;2.63;;;;;;;;;;4950263;28;20238;-75
2022/09/02 06:04:33;;;;;;;4.43;2.50;;;;;;;;;;4953031;28;20197;-75
2022/09/02 06:07:00;;;;;;;4.57;2.60;;;;;;;;;;4949840;28;20227;-75
2022/09/02 06:09:27;;;;;;;6.47;2.73;;;;;;;;;;4953395;28;20249;-75
2022/09/02 06:11:56;;;;;;;4.80;2.93;;;;;;;;;;4945439;28;20297;-75
2022/09/02 06:14:24;;;;;;;5.80;2.83;;;;;;;;;;4948396;29;20736;-75
2022/09/02 06:16:53;;;;;;;5.03;2.77;;;;;;;;;;4946997;28;20751;-75
2022/09/02 06:19:21;;;;;;;4.00;2.60;;;;;;;;;;4946702;28;20228;-75
2022/09/02 06:21:49;;;;;;;5.60;2.50;;;;;;;;;;4951802;28;20296;-75
2022/09/02 06:24:17;;;;;;;6.10;2.30;;;;;;;;;;4947903;28;20576;-75
2022/09/02 06:26:44;;;;;;;4.37;2.70;;;;;;;;;;4946860;28;20579;-75
2022/09/02 06:29:11;;;;;;;9.53;2.70;;;;;;;;;;4947650;28;20207;-75
2022/09/02 06:31:41;;;;;;;4.43;2.47;;;;;;;;;;4948897;28;20754;-75
2022/09/02 06:34:13;;;;;;;6.13;2.53;;;;;;;;;;4949427;28;20208;-75
2022/09/02 06:36:41;;;;;;;8.77;2.47;;;;;;;;;;4941412;28;20257;-75
2022/09/02 06:39:11;;;;;;;8.33;2.57;;;;;;;;;;4943535;28;20229;-75
2022/09/02 06:41:39;;;;;;;8.77;2.30;;;;;;;;;;4947071;28;20290;-75
2022/09/02 06:44:07;;;;;;;10.37;2.70;;;;;;;;;;4948373;28;20210;-75
2022/09/02 06:46:35;;;;;;;10.17;2.53;;;;;;;;;;4946548;28;20240;-75
2022/09/02 06:49:07;;;;;;;9.57;2.17;;;;;;;;;;4946658;28;20206;-75
2022/09/02 06:51:39;;;;;;;12.10;2.77;;;;;;;;;;4947577;28;20260;-75
2022/09/02 06:54:13;;;;;;;16.97;2.90;;;;;;;;;;4947012;28;20591;-75
2022/09/02 06:56:42;;;;;;;14.50;2.53;;;;;;;;;;4939588;28;20229;-75
2022/09/02 06:59:09;;;;;;;16.13;2.43;;;;;;;;;;4946601;28;20314;-75
2022/09/02 07:01:38;;;;;;;10.87;2.50;;;;;;;;;;4946565;28;20297;-75
2022/09/02 07:06:58;;;;;;;20.93;3.27;;;;;;;;;;4910191;29;20315;-75
2022/09/02 07:09:29;;;;;;;10.33;3.47;;;;;;;;;;4946087;28;20623;-75
2022/09/02 07:11:58;;;;;;;17.50;3.90;;;;;;;;;;4950195;28;20744;-75
2022/09/02 07:14:27;;;;;;;11.50;2.70;;;;;;;;;;4948689;28;20297;-75
2022/09/02 07:16:56;;;;;;;15.73;3.10;;;;;;;;;;4946495;28;20258;-75
2022/09/02 07:19:24;;;;;;;8.00;2.40;;;;;;;;;;4946231;28;20222;-75
2022/09/02 07:21:51;;;;;;;8.43;3.07;;;;;;;;;;4950673;28;20663;-75
2022/09/02 07:24:19;;;;;;;6.03;2.40;;;;;;;;;;4946871;28;20221;-75
2022/09/02 07:26:46;;;;;;;6.17;2.10;;;;;;;;;;4947947;28;20288;-75
2022/09/02 07:29:15;;;;;;;5.57;2.23;;;;;;;;;;4950058;28;20195;-75
2022/09/02 07:31:43;;;;;;;6.13;2.13;;;;;;;;;;4944025;29;20218;-75
2022/09/02 07:34:11;;;;;;;7.23;2.30;;;;;;;;;;4944250;28;20297;-75
2022/09/02 07:36:39;;;;;;;10.67;2.33;;;;;;;;;;4944211;28;20530;-75
2022/09/02 07:39:08;;;;;;;12.40;3.20;;;;;;;;;;4949825;28;20226;-75
2022/09/02 07:41:36;;;;;;;9.07;2.10;;;;;;;;;;4946153;28;20297;-75
2022/09/02 07:44:03;;;;;;;6.83;2.20;;;;;;;;;;4944943;28;20210;-75
2022/09/02 07:46:32;;;;;;;8.03;2.13;;;;;;;;;;4946340;28;20234;-75
2022/09/02 07:49:00;;;;;;;9.40;2.00;;;;;;;;;;4946207;28;20213;-74
2022/09/02 07:51:27;;;;;;;5.27;1.73;;;;;;;;;;4946592;28;20670;-75
2022/09/02 07:53:54;;;;;;;9.50;1.53;;;;;;;;;;4949663;28;20301;-75
2022/09/02 07:56:21;;;;;;;6.20;1.77;;;;;;;;;;4950824;28;20222;-75
2022/09/02 07:58:49;;;;;;;5.57;1.87;;;;;;;;;;4951376;28;20606;-75
2022/09/02 08:01:16;;;;;;;5.63;1.90;;;;;;;;;;4949468;28;20646;-75
2022/09/02 08:03:45;;;;;;;3.10;1.57;;;;;;;;;;4947277;28;20214;-76
2022/09/02 08:06:13;;;;;;;8.30;1.70;;;;;;;;;;4945114;28;20230;-76
2022/09/02 08:08:40;;;;;;;4.80;1.60;;;;;;;;;;4951646;28;20221;-76
2022/09/02 08:11:08;;;;;;;8.43;1.50;;;;;;;;;;4952095;28;20229;-76
2022/09/02 08:13:36;;;;;;;9.13;1.30;;;;;;;;;;4950889;28;20257;-76
2022/09/02 08:16:03;;;;;;;3.47;1.43;;;;;;;;;;4943561;28;20321;-75
2022/09/02 08:18:30;;;;;;;4.87;1.60;;;;;;;;;;4940946;28;20219;-75
2022/09/02 08:20:59;;;;;;;2.97;1.37;;;;;;;;;;4948743;28;20293;-75
2022/09/02 08:23:26;;;;;;;4.73;1.40;;;;;;;;;;4945165;28;20289;-75
2022/09/02 08:25:54;;;;;;;2.40;1.20;;;;;;;;;;4944500;28;20292;-75
2022/09/02 08:28:21;;;;;;;3.40;1.37;;;;;;;;;;4948651;28;20330;-75
2022/09/02 08:30:49;;;;;;;2.47;1.23;;;;;;;;;;4948009;28;20689;-76
2022/09/02 08:33:16;;;;;;;2.47;1.27;;;;;;;;;;4943499;28;20202;-75
2022/09/02 08:35:43;;;;;;;3.77;1.30;;;;;;;;;;4948373;28;20231;-75
2022/09/02 08:38:11;;;;;;;2.07;1.30;;;;;;;;;;4949472;28;20567;-75
2022/09/02 08:40:40;;;;;;;5.13;1.27;;;;;;;;;;4951356;28;20793;-75
2022/09/02 08:43:16;;;;;;;2.00;1.20;;;;;;;;;;4948346;28;20297;-75
2022/09/02 08:45:44;;;;;;;4.83;1.47;;;;;;;;;;4941680;28;20676;-75
2022/09/02 08:48:14;;;;;;;5.63;1.30;;;;;;;;;;4949325;28;20206;-75
2022/09/02 08:50:43;;;;;;;1.67;0.97;;;;;;;;;;4943616;28;20288;-75
2022/09/02 08:53:16;;;;;;;5.03;1.20;;;;;;;;;;4943353;28;20296;-75
2022/09/02 08:55:46;;;;;;;2.30;1.13;;;;;;;;;;4947223;28;20210;-75
2022/09/02 08:58:14;;;;;;;3.80;1.20;;;;;;;;;;4943171;28;20741;-75
2022/09/02 09:00:43;;;;;;;2.60;1.00;;;;;;;;;;4940890;28;20665;-75
2022/09/02 09:03:16;;;;;;;9.87;1.40;;;;;;;;;;4945215;28;20222;-74
2022/09/02 09:05:47;;;;;;;4.67;1.30;;;;;;;;;;4945596;28;20295;-75
2022/09/02 09:08:20;;;;;;;2.13;1.20;;;;;;;;;;4944094;28;20217;-76
2022/09/02 09:10:56;;;;;;;4.00;1.77;;;;;;;;;;4944792;28;20207;-76
2022/09/02 09:13:38;;;;;;;3.27;1.23;;;;;;;;;;4943898;28;20301;-76
2022/09/02 09:16:08;;;;;;;4.20;1.27;;;;;;;;;;4914142;28;21217;-75
2022/09/02 09:18:38;;;;;;;2.07;1.20;;;;;;;;;;4943102;28;20238;-74
2022/09/02 09:21:06;;;;;;;3.00;1.17;;;;;;;;;;4946126;28;20210;-75
2022/09/02 09:23:36;;;;;;;3.83;1.30;;;;;;;;;;4945145;28;20675;-75
2022/09/02 09:26:07;;;;;;;6.97;1.30;;;;;;;;;;4948217;28;20245;-76
2022/09/02 09:28:40;;;;;;;3.33;1.47;;;;;;;;;;4945212;28;20206;-75
2022/09/02 09:31:10;;;;;;;2.67;1.30;;;;;;;;;;4944493;28;20206;-75
2022/09/02 09:33:37;;;;;;;2.20;0.90;;;;;;;;;;4946813;28;20685;-75
2022/09/02 09:36:04;;;;;;;3.27;1.07;;;;;;;;;;4944360;28;20321;-74
2022/09/02 09:38:33;;;;;;;3.20;1.10;;;;;;;;;;4945982;29;20253;-75
2022/09/02 09:41:13;;;;;;;5.50;1.30;;;;;;;;;;4945868;28;20405;-75
2022/09/02 09:43:40;;;;;;;1.20;1.00;;;;;;;;;;4944260;28;20271;-74
2022/09/02 09:46:22;;;;;;;2.37;1.10;;;;;;;;;;4946279;28;20261;-74
2022/09/02 09:48:50;;;;;;;4.47;1.10;;;;;;;;;;4943520;28;20203;-75
2022/09/02 09:51:17;;;;;;;7.10;1.30;;;;;;;;;;4945166;28;20220;-74
2022/09/02 09:53:47;;;;;;;1.87;1.00;;;;;;;;;;4943098;28;20304;-74
2022/09/02 09:56:28;;;;;;;4.47;1.00;;;;;;;;;;4947325;28;20230;-74
2022/09/02 09:58:55;;;;;;;4.60;1.07;;;;;;;;;;4943630;28;20226;-74
2022/09/02 10:01:23;;;;;;;2.37;1.20;;;;;;;;;;4946884;28;20206;-74
2022/09/02 10:03:53;;;;;;;2.67;1.10;;;;;;;;;;4946167;28;20307;-75
2022/09/02 10:06:21;;;;;;;3.93;1.33;;;;;;;;;;4942923;28;20779;-74
2022/09/02 10:08:52;;;;;;;2.17;1.10;;;;;;;;;;4945161;28;20241;-75
2022/09/02 10:11:24;;;;;;;6.07;1.20;;;;;;;;;;4949401;28;20206;-74
2022/09/02 10:13:56;;;;;;;4.50;1.10;;;;;;;;;;4948479;29;20226;-75
2022/09/02 10:16:30;;;;;;;2.53;0.97;;;;;;;;;;4948756;28;20731;-75
2022/09/02 10:19:02;;;;;;;5.40;1.20;;;;;;;;;;4947898;28;20313;-75
2022/09/02 10:21:36;;;;;;;3.00;1.43;;;;;;;;;;4949643;28;20293;-75
2022/09/02 10:24:08;;;;;;;4.53;0.97;;;;;;;;;;4949210;28;20301;-75
2022/09/02 10:26:37;;;;;;;3.47;1.27;;;;;;;;;;4947316;28;20278;-74
2022/09/02 10:29:29;;;;;;;2.47;1.10;;;;;;;;;;4944801;28;20203;-74
2022/09/02 10:32:02;;;;;;;3.63;1.00;;;;;;;;;;4946255;28;20217;-75
2022/09/02 10:34:34;;;;;;;2.50;1.20;;;;;;;;;;4947945;28;20202;-74
2022/09/02 10:37:12;;;;;;;3.03;1.40;;;;;;;;;;4947300;28;20626;-75
2022/09/02 10:39:48;;;;;;;3.93;1.20;;;;;;;;;;4943477;28;20230;-74
2022/09/02 10:42:19;;;;;;;5.23;1.40;;;;;;;;;;4946944;28;20206;-74
2022/09/02 10:44:53;;;;;;;1.83;1.10;;;;;;;;;;4950228;28;20297;-75
2022/09/02 10:47:23;;;;;;;2.27;1.13;;;;;;;;;;4948176;28;20243;-75
2022/09/02 10:50:01;;;;;;;2.13;1.20;;;;;;;;;;4950822;28;20205;-75
2022/09/02 10:52:44;;;;;;;2.03;1.00;;;;;;;;;;4948995;28;20281;-74
2022/09/02 10:55:17;;;;;;;3.77;1.33;;;;;;;;;;4951110;28;20216;-75
2022/09/02 10:57:47;;;;;;;4.10;1.40;;;;;;;;;;4947237;28;20664;-75
2022/09/02 11:00:17;;;;;;;2.77;1.30;;;;;;;;;;4948412;28;20218;-75
2022/09/02 11:02:48;;;;;;;2.20;1.17;;;;;;;;;;4948495;28;20206;-75
2022/09/02 11:05:17;;;;;;;1.67;1.03;;;;;;;;;;4951740;28;20256;-74
2022/09/02 11:07:48;;;;;;;2.33;0.90;;;;;;;;;;4945079;28;20326;-74
2022/09/02 11:10:18;;;;;;;1.53;0.90;;;;;;;;;;4948747;28;20296;-73
2022/09/02 11:12:48;;;;;;;3.50;1.10;;;;;;;;;;4946754;28;20211;-75
2022/09/02 11:15:20;;;;;;;3.27;1.17;;;;;;;;;;4948433;28;20670;-75
2022/09/02 11:17:50;;;;;;;5.63;1.30;;;;;;;;;;4946531;28;20230;-75
2022/09/02 11:20:24;;;;;;;4.37;1.20;;;;;;;;;;4947151;28;20233;-75
2022/09/02 11:22:54;;;;;;;1.63;1.10;;;;;;;;;;4947405;28;20210;-74
2022/09/02 11:25:22;;;;;;;4.40;1.37;;;;;;;;;;4944558;28;20310;-75
2022/09/02 11:27:53;;;;;;;3.17;1.20;;;;;;;;;;4944809;28;20245;-75
2022/09/02 11:30:23;;;;;;;5.10;1.37;;;;;;;;;;4951055;28;20289;-75
2022/09/02 11:32:53;;;;;;;4.83;1.40;;;;;;;;;;4944718;28;20209;-75
2022/09/02 11:35:25;;;;;;;1.50;1.07;;;;;;;;;;4951370;28;20212;-75
2022/09/02 11:37:55;;;;;;;4.37;1.20;;;;;;;;;;4945330;28;20230;-75
2022/09/02 11:40:26;;;;;;;2.30;1.27;;;;;;;;;;4948008;28;20260;-75
2022/09/02 11:43:03;;;;;;;4.17;1.20;;;;;;;;;;4945406;28;20732;-75
2022/09/02 11:45:41;;;;;;;1.60;1.10;;;;;;;;;;4944372;28;20225;-75
2022/09/02 11:48:29;;;;;;;1.90;0.87;;;;;;;;;;4945434;28;20227;-76
2022/09/02 11:51:03;;;;;;;7.10;1.30;;;;;;;;;;4943122;28;20293;-74
2022/09/02 11:53:31;;;;;;;5.30;1.20;;;;;;;;;;4944042;28;20658;-75
2022/09/02 11:55:59;;;;;;;2.50;1.20;;;;;;;;;;4945319;28;20202;-75
2022/09/02 11:58:34;;;;;;;7.67;1.30;;;;;;;;;;4945594;28;20692;-75
2022/09/02 12:01:07;;;;;;;4.60;1.10;;;;;;;;;;4944789;28;20708;-75
2022/09/02 12:03:35;;;;;;;4.00;1.10;;;;;;;;;;4944765;28;20619;-74
2022/09/02 12:06:09;;;;;;;2.23;1.10;;;;;;;;;;4945256;28;20207;-75
2022/09/02 12:09:10;;;;;;;3.43;1.30;;;;;;;;;;4945286;28;20302;-74
2022/09/02 12:11:48;;;;;;;2.80;1.30;;;;;;;;;;4944230;29;20203;-75
2022/09/02 12:14:34;;;;;;;3.17;1.13;;;;;;;;;;4945927;28;20206;-76
2022/09/02 12:17:03;;;;;;;2.27;1.27;;;;;;;;;;4949928;28;20230;-76
2022/09/02 12:19:41;;;;;;;2.63;1.20;;;;;;;;;;4948852;28;20325;-75
2022/09/02 12:22:28;;;;;;;6.70;1.23;;;;;;;;;;4942785;28;20252;-75
2022/09/02 12:24:56;;;;;;;4.40;1.30;;;;;;;;;;4944551;28;20210;-75
2022/09/02 12:27:32;;;;;;;2.73;1.00;;;;;;;;;;4943696;28;20248;-75
2022/09/02 12:29:59;;;;;;;4.70;1.20;;;;;;;;;;4947743;28;20257;-75
2022/09/02 12:32:51;;;;;;;2.50;1.30;;;;;;;;;;4945251;28;20650;-75
2022/09/02 12:35:33;;;;;;;3.07;1.63;;;;;;;;;;4946640;28;20286;-75
2022/09/02 12:38:15;;;;;;;1.67;1.10;;;;;;;;;;4949858;28;20316;-74
2022/09/02 12:40:51;;;;;;;1.73;1.00;;;;;;;;;;4945236;28;20244;-75
2022/09/02 12:43:24;;;;;;;1.87;1.00;;;;;;;;;;4946297;28;20306;-75
2022/09/02 12:45:54;;;;;;;1.53;0.90;;;;;;;;;;4945120;28;20656;-75
2022/09/02 12:48:25;;;;;;;5.63;1.30;;;;;;;;;;4946393;28;20198;-76
2022/09/02 12:50:55;;;;;;;2.50;0.90;;;;;;;;;;4947888;28;20206;-76
2022/09/02 12:53:28;;;;;;;1.87;0.97;;;;;;;;;;4945231;28;20208;-76
2022/09/02 12:55:57;;;;;;;1.90;1.10;;;;;;;;;;4944670;28;20289;-75
2022/09/02 12:58:24;;;;;;;3.53;1.00;;;;;;;;;;4946158;28;20245;-76
2022/09/02 13:00:58;;;;;;;3.10;0.90;;;;;;;;;;4944574;28;20646;-75
2022/09/02 13:03:49;;;;;;;2.90;1.00;;;;;;;;;;4946658;28;20202;-75
2022/09/02 13:06:24;;;;;;;2.23;1.17;;;;;;;;;;4936527;28;20258;-76
2022/09/02 13:09:10;;;;;;;2.30;1.10;;;;;;;;;;4947383;28;20216;-75
2022/09/02 13:11:53;;;;;;;1.70;1.10;;;;;;;;;;4946825;28;20200;-75
2022/09/02 13:14:36;;;;;;;2.47;0.90;;;;;;;;;;4951179;28;20198;-74
2022/09/02 13:17:12;;;;;;;2.67;0.77;;;;;;;;;;4947857;28;20680;-75
2022/09/02 13:20:18;;;;;;;1.63;0.87;;;;;;;;;;4948674;28;20262;-74
2022/09/02 13:22:54;;;;;;;1.47;0.80;;;;;;;;;;4888606;29;20208;-76
2022/09/02 13:25:38;;;;;;;1.47;0.97;;;;;;;;;;4888188;29;20216;-75
2022/09/02 13:28:21;;;;;;;2.33;1.10;;;;;;;;;;4924709;28;20226;-75
2022/09/02 13:31:04;;;;;;;1.27;0.80;;;;;;;;;;4941101;28;20214;-75
2022/09/02 13:33:33;;;;;;;3.13;1.03;;;;;;;;;;4942443;28;20603;-75
2022/09/02 13:36:00;;;;;;;1.77;1.10;;;;;;;;;;4947441;28;20212;-75
2022/09/02 13:38:31;;;;;;;1.63;1.03;;;;;;;;;;4942843;28;20680;-76
2022/09/02 13:41:01;;;;;;;1.57;0.90;;;;;;;;;;4945853;28;20265;-76
2022/09/02 13:43:28;;;;;;;5.93;1.00;;;;;;;;;;4945214;28;20237;-75
2022/09/02 13:45:59;;;;;;;3.60;1.30;;;;;;;;;;4944867;28;20211;-76
2022/09/02 13:48:30;;;;;;;4.97;1.30;;;;;;;;;;4947542;28;20207;-75
2022/09/02 13:51:09;;;;;;;1.57;1.00;;;;;;;;;;4950018;28;20776;-75
2022/09/02 13:53:39;;;;;;;1.13;0.90;;;;;;;;;;4946965;28;20293;-75
2022/09/02 13:56:10;;;;;;;1.60;0.93;;;;;;;;;;4947228;28;20308;-75
2022/09/02 13:58:38;;;;;;;9.43;1.30;;;;;;;;;;4949712;28;20289;-75
2022/09/02 14:01:20;;;;;;;2.43;1.10;;;;;;;;;;4945287;28;20230;-75
2022/09/02 14:03:51;;;;;;;1.13;0.90;;;;;;;;;;4940065;28;20313;-75
2022/09/02 14:06:21;;;;;;;2.77;1.20;;;;;;;;;;4944984;28;20226;-75
2022/09/02 14:08:51;;;;;;;1.37;0.87;;;;;;;;;;4944444;28;20210;-75
2022/09/02 14:11:20;;;;;;;2.30;0.80;;;;;;;;;;4943925;28;20206;-75
2022/09/02 14:13:49;;;;;;;2.13;0.90;;;;;;;;;;4943600;28;20304;-75
2022/09/02 14:16:26;;;;;;;3.27;0.97;;;;;;;;;;4950065;28;20254;-75
2022/09/02 14:19:20;;;;;;;4.23;1.00;;;;;;;;;;4950498;28;20222;-76
2022/09/02 14:21:50;;;;;;;2.30;1.10;;;;;;;;;;4915790;29;20273;-76
2022/09/02 14:24:23;;;;;;;1.53;0.83;;;;;;;;;;4947650;28;20293;-76
2022/09/02 14:26:51;;;;;;;4.40;1.10;;;;;;;;;;4948520;28;20229;-75
2022/09/02 14:29:22;;;;;;;3.33;1.10;;;;;;;;;;4954166;28;20203;-75
2022/09/02 14:32:04;;;;;;;2.00;0.80;;;;;;;;;;4945882;28;20246;-75
2022/09/02 14:34:35;;;;;;;1.50;0.90;;;;;;;;;;4947293;28;20219;-74
2022/09/02 14:37:14;;;;;;;7.10;1.10;;;;;;;;;;4944289;28;20240;-75
2022/09/02 14:39:53;;;;;;;3.60;1.00;;;;;;;;;;4943122;28;20209;-75
2022/09/02 14:42:20;;;;;;;1.93;0.87;;;;;;;;;;4940181;28;20210;-75
2022/09/02 14:44:48;;;;;;;2.53;1.17;;;;;;;;;;4942598;28;20202;-76
2022/09/02 14:47:17;;;;;;;2.00;0.80;;;;;;;;;;4948880;28;20266;-74
2022/09/02 14:49:47;;;;;;;6.33;1.07;;;;;;;;;;4946842;28;20585;-75
2022/09/02 14:52:18;;;;;;;1.63;0.90;;;;;;;;;;4940512;28;20207;-75
2022/09/02 14:54:46;;;;;;;1.17;0.80;;;;;;;;;;4933925;28;20211;-75
2022/09/02 14:57:22;;;;;;;2.63;1.03;;;;;;;;;;4941184;28;20230;-74
2022/09/02 14:59:50;;;;;;;1.37;0.93;;;;;;;;;;4947838;28;20293;-74
2022/09/02 15:02:24;;;;;;;3.17;0.80;;;;;;;;;;4943823;28;20210;-75
2022/09/02 15:04:52;;;;;;;3.63;0.73;;;;;;;;;;4948424;28;20297;-75
2022/09/02 15:07:19;;;;;;;3.47;0.80;;;;;;;;;;4938381;28;20322;-75
2022/09/02 15:09:50;;;;;;;1.17;0.77;;;;;;;;;;4947537;28;20210;-75